Time;durP1;ratioP1;P1;durP2;ratioP2;P2;SDS_P1;SDS_P2;PMS_P1;PMS_P2;Temp;Humidity;BMP_temperature;BMP_pressure;BME280_temperature;BME280_humidity;BME280_pressure;Samples;Min_cycle;Max_cycle;Signal;HPM_P1;HPM_P2
2021/09/30 00:00:07;;;;;;;2.30;1.13;;;11.70;92.80;;;;;;2079446;28;20071;-71
2021/09/30 00:01:08;;;;;;;1.33;1.05;;;11.70;92.90;;;;;;2079720;28;20104;-71
2021/09/30 00:02:08;;;;;;;3.80;1.20;;;11.70;92.90;;;;;;2079718;28;20737;-71
2021/09/30 00:03:10;;;;;;;1.30;1.00;;;11.70;92.70;;;;;;2079712;28;20037;-71
2021/09/30 00:04:10;;;;;;;2.67;1.10;;;11.70;92.70;;;;;;2079630;28;20128;-71
2021/09/30 00:05:11;;;;;;;3.53;1.48;;;11.70;92.50;;;;;;2079825;28;20038;-71
2021/09/30 00:06:12;;;;;;;3.42;1.10;;;11.70;92.60;;;;;;2080466;28;20033;-70
2021/09/30 00:07:12;;;;;;;2.15;1.20;;;11.70;92.60;;;;;;2080132;28;20030;-72
2021/09/30 00:08:13;;;;;;;1.38;1.10;;;11.70;92.30;;;;;;2079770;28;20025;-71
2021/09/30 00:09:15;;;;;;;2.10;1.25;;;11.70;92.60;;;;;;2079728;28;20462;-71
2021/09/30 00:10:19;;;;;;;1.75;1.08;;;11.70;92.80;;;;;;2079756;28;20022;-71
2021/09/30 00:11:25;;;;;;;3.35;1.20;;;11.70;92.90;;;;;;2080508;28;20038;-71
2021/09/30 00:12:32;;;;;;;3.58;1.30;;;11.70;92.80;;;;;;2079685;28;20022;-71
2021/09/30 00:15:09;;;;;;;1.67;1.20;;;11.70;92.90;;;;;;2079576;28;20041;-70
2021/09/30 00:32:29;;;;;;;1.90;1.00;;;11.70;92.60;;;;;;2080378;28;20061;-71
2021/09/30 00:40:26;;;;;;;1.30;1.20;;;11.70;92.20;;;;;;2079703;28;20025;-71
2021/09/30 00:47:48;;;;;;;2.22;1.17;;;11.70;92.50;;;;;;2080898;28;20480;-71
2021/09/30 00:51:26;;;;;;;1.42;1.10;;;11.70;92.70;;;;;;2081048;28;20057;-71
2021/09/30 01:32:28;;;;;;;2.60;1.40;;;11.40;93.00;;;;;;2080643;28;20091;-73
2021/09/30 02:23:32;;;;;;;3.33;1.90;;;10.80;94.80;;;;;;2080368;28;20025;-72
2021/09/30 02:27:17;;;;;;;3.10;1.80;;;10.80;94.80;;;;;;2087000;28;20037;-73
2021/09/30 02:28:43;;;;;;;6.05;2.13;;;10.80;95.10;;;;;;2081084;28;20041;-73
2021/09/30 02:31:17;;;;;;;2.58;1.80;;;10.70;94.90;;;;;;2081372;28;20025;-71
2021/09/30 02:58:33;;;;;;;5.10;2.40;;;10.50;95.80;;;;;;2083410;28;20135;-72
2021/09/30 02:59:35;;;;;;;2.90;1.90;;;10.50;95.90;;;;;;2079982;28;20033;-73
2021/09/30 03:00:37;;;;;;;5.00;1.85;;;10.50;95.90;;;;;;2080115;28;20060;-73
2021/09/30 03:01:41;;;;;;;3.92;1.90;;;10.50;96.00;;;;;;2079829;28;20529;-72
2021/09/30 03:02:48;;;;;;;4.25;1.90;;;10.50;96.10;;;;;;2080295;28;20087;-72
2021/09/30 03:03:53;;;;;;;5.03;1.90;;;10.50;96.10;;;;;;2079111;28;20084;-72
2021/09/30 03:04:55;;;;;;;5.68;1.73;;;10.50;95.90;;;;;;2072158;28;20034;-72
2021/09/30 03:05:56;;;;;;;4.53;1.70;;;10.50;95.80;;;;;;2080141;28;20029;-72
2021/09/30 03:06:59;;;;;;;2.28;1.70;;;10.50;96.10;;;;;;2079883;28;20036;-72
2021/09/30 03:08:00;;;;;;;2.13;1.60;;;10.50;96.30;;;;;;2080139;28;20040;-72
2021/09/30 03:09:05;;;;;;;2.72;1.60;;;10.50;96.50;;;;;;2080357;28;20072;-72
2021/09/30 03:10:07;;;;;;;2.58;1.70;;;10.40;96.60;;;;;;2079940;28;20108;-72
2021/09/30 03:11:09;;;;;;;2.78;1.80;;;10.50;96.30;;;;;;2079977;28;20029;-72
2021/09/30 03:12:28;;;;;;;5.43;1.70;;;10.50;96.40;;;;;;2079979;28;20022;-71
2021/09/30 03:13:31;;;;;;;3.08;1.80;;;10.50;96.20;;;;;;2079131;28;20137;-72
2021/09/30 03:14:38;;;;;;;2.55;1.70;;;10.50;96.10;;;;;;2079954;28;20491;-72
2021/09/30 03:15:43;;;;;;;2.67;1.90;;;10.50;96.20;;;;;;2079914;28;20033;-72
2021/09/30 03:16:49;;;;;;;3.22;1.88;;;10.50;96.10;;;;;;2072185;28;20022;-73
2021/09/30 03:19:19;;;;;;;3.00;1.92;;;10.40;96.30;;;;;;2080004;28;20167;-71
2021/09/30 03:20:42;;;;;;;2.85;1.80;;;10.40;96.20;;;;;;2079631;28;20021;-72
2021/09/30 03:22:13;;;;;;;3.40;1.77;;;10.40;96.40;;;;;;2080072;28;20080;-72
2021/09/30 03:23:19;;;;;;;3.35;1.98;;;10.40;96.40;;;;;;2075224;28;20025;-71
2021/09/30 03:24:21;;;;;;;4.88;1.98;;;10.50;96.20;;;;;;2080416;28;20077;-71
2021/09/30 03:25:22;;;;;;;4.00;2.05;;;10.40;96.20;;;;;;2079859;28;20529;-72
2021/09/30 03:26:25;;;;;;;3.53;1.73;;;10.40;96.40;;;;;;2079788;28;20029;-71
2021/09/30 03:27:27;;;;;;;2.38;1.60;;;10.50;96.30;;;;;;2079751;28;20077;-72
2021/09/30 03:28:29;;;;;;;3.65;1.80;;;10.40;96.50;;;;;;2079822;28;20120;-72
2021/09/30 03:29:31;;;;;;;4.07;1.80;;;10.40;96.60;;;;;;2079694;28;20052;-72
2021/09/30 03:30:32;;;;;;;2.42;1.65;;;10.40;96.60;;;;;;2071720;28;20096;-72
2021/09/30 03:31:33;;;;;;;2.35;1.83;;;10.40;96.00;;;;;;2079911;28;20036;-72
2021/09/30 03:33:08;;;;;;;5.68;1.80;;;10.50;96.00;;;;;;2079792;28;20138;-72
2021/09/30 03:34:12;;;;;;;3.65;1.85;;;10.40;96.50;;;;;;2075789;28;20376;-72
2021/09/30 03:35:13;;;;;;;2.10;1.75;;;10.40;96.30;;;;;;2071661;28;20034;-72
2021/09/30 03:36:13;;;;;;;2.03;1.58;;;10.40;96.30;;;;;;2071783;28;20458;-72
2021/09/30 03:37:14;;;;;;;3.38;1.73;;;10.40;96.40;;;;;;2079779;28;20120;-72
2021/09/30 03:38:18;;;;;;;3.35;1.60;;;10.40;96.30;;;;;;2079871;28;20029;-72
2021/09/30 03:39:24;;;;;;;2.97;1.88;;;10.40;96.20;;;;;;2079896;28;20434;-72
2021/09/30 03:40:25;;;;;;;3.45;2.00;;;10.50;96.40;;;;;;2079828;28;20085;-72
2021/09/30 03:41:26;;;;;;;4.05;2.00;;;10.50;96.60;;;;;;2079877;28;20048;-71
2021/09/30 03:42:27;;;;;;;3.55;2.00;;;10.40;97.10;;;;;;2079839;28;20200;-72
2021/09/30 03:43:37;;;;;;;3.00;1.80;;;10.40;96.80;;;;;;2070809;28;20037;-72
2021/09/30 03:44:39;;;;;;;4.30;1.75;;;10.30;97.10;;;;;;2073139;28;20752;-72
2021/09/30 03:45:43;;;;;;;3.97;1.80;;;10.30;96.80;;;;;;2079778;28;20056;-72
2021/09/30 03:46:53;;;;;;;4.75;1.95;;;10.40;96.80;;;;;;2081257;28;20060;-72
2021/09/30 03:48:14;;;;;;;4.07;1.90;;;10.30;97.40;;;;;;2079827;28;20490;-71
2021/09/30 03:49:24;;;;;;;5.78;1.90;;;10.30;96.90;;;;;;2079722;28;20279;-71
2021/09/30 03:50:28;;;;;;;3.17;1.90;;;10.30;97.10;;;;;;2079675;28;20033;-71
2021/09/30 03:52:16;;;;;;;2.83;1.90;;;10.30;96.90;;;;;;2080246;28;20033;-71
2021/09/30 03:56:50;;;;;;;3.83;1.90;;;10.30;97.00;;;;;;2079747;28;20029;-71
2021/09/30 03:59:20;;;;;;;2.85;1.90;;;10.30;97.10;;;;;;2082216;28;20057;-71
2021/09/30 04:00:28;;;;;;;3.97;2.10;;;10.20;97.30;;;;;;2079737;28;20030;-72
2021/09/30 04:01:29;;;;;;;5.55;2.10;;;10.20;97.50;;;;;;2079856;28;20048;-72
2021/09/30 04:02:31;;;;;;;4.30;1.90;;;10.20;97.30;;;;;;2079708;28;20033;-71
2021/09/30 04:03:31;;;;;;;3.20;2.08;;;10.20;97.20;;;;;;2078717;28;20021;-71
2021/09/30 04:04:35;;;;;;;2.30;1.98;;;10.20;97.40;;;;;;2071563;28;20022;-71
2021/09/30 04:05:36;;;;;;;4.85;2.10;;;10.20;97.60;;;;;;2080136;28;20079;-71
2021/09/30 04:06:37;;;;;;;3.20;1.92;;;10.20;97.60;;;;;;2088132;28;20025;-71
2021/09/30 04:07:37;;;;;;;4.07;1.88;;;10.20;97.50;;;;;;2079636;28;20148;-71
2021/09/30 04:08:40;;;;;;;3.05;2.00;;;10.20;97.20;;;;;;2071644;28;20026;-71
2021/09/30 04:09:40;;;;;;;4.75;2.17;;;10.20;97.40;;;;;;2079918;28;20064;-71
2021/09/30 04:10:42;;;;;;;5.03;2.03;;;10.20;97.60;;;;;;2079768;28;20188;-71
2021/09/30 04:11:45;;;;;;;3.58;2.00;;;10.20;97.70;;;;;;2079827;28;20017;-72
2021/09/30 04:12:46;;;;;;;2.58;1.65;;;10.20;97.50;;;;;;2080244;28;20038;-71
2021/09/30 04:13:47;;;;;;;3.45;2.10;;;10.20;97.50;;;;;;2071194;28;20065;-71
2021/09/30 04:14:47;;;;;;;3.33;1.75;;;10.20;97.70;;;;;;2080137;28;20025;-71
2021/09/30 04:15:50;;;;;;;3.55;1.90;;;10.20;97.90;;;;;;2080286;28;20124;-71
2021/09/30 04:16:51;;;;;;;3.47;2.03;;;10.20;97.60;;;;;;2080552;28;20029;-71
2021/09/30 04:17:52;;;;;;;2.42;1.90;;;10.20;97.70;;;;;;2088661;28;20072;-71
2021/09/30 04:18:53;;;;;;;5.38;2.10;;;10.20;97.90;;;;;;2080238;28;20029;-71
2021/09/30 04:19:54;;;;;;;5.35;2.00;;;10.10;97.80;;;;;;2080407;28;20411;-71
2021/09/30 04:20:55;;;;;;;2.75;1.90;;;10.10;97.70;;;;;;2080756;28;20108;-71
2021/09/30 04:21:58;;;;;;;2.50;1.80;;;10.10;97.70;;;;;;2081732;28;20030;-71
2021/09/30 04:23:03;;;;;;;2.15;1.60;;;10.10;97.90;;;;;;2081396;28;20101;-72
2021/09/30 04:24:04;;;;;;;2.88;1.70;;;10.10;98.00;;;;;;2080510;28;20112;-71
2021/09/30 04:25:05;;;;;;;4.03;1.77;;;10.10;98.20;;;;;;2081320;28;20099;-71
2021/09/30 04:26:06;;;;;;;2.83;2.00;;;10.10;98.30;;;;;;2089580;28;20481;-71
2021/09/30 04:27:08;;;;;;;3.72;1.90;;;10.00;98.40;;;;;;2081235;28;20030;-71
2021/09/30 04:28:09;;;;;;;2.50;1.90;;;10.00;98.70;;;;;;2080991;28;20057;-71
2021/09/30 04:29:13;;;;;;;3.47;1.90;;;10.00;98.70;;;;;;2081169;28;20026;-71
2021/09/30 04:30:14;;;;;;;3.45;1.90;;;10.00;98.80;;;;;;2081147;28;20577;-71
2021/09/30 04:31:32;;;;;;;3.28;1.70;;;10.00;99.30;;;;;;2083469;28;20052;-71
2021/09/30 04:32:35;;;;;;;3.00;1.75;;;9.90;99.20;;;;;;2081162;28;20025;-71
2021/09/30 04:33:37;;;;;;;4.25;1.80;;;9.90;99.30;;;;;;2080440;28;20029;-71
2021/09/30 04:34:38;;;;;;;2.53;1.70;;;9.90;99.50;;;;;;2081052;28;20128;-70
2021/09/30 04:35:39;;;;;;;2.33;1.70;;;9.90;99.70;;;;;;2072894;28;20034;-71
2021/09/30 04:36:40;;;;;;;3.63;1.67;;;9.80;99.80;;;;;;2081033;28;20495;-70
2021/09/30 04:37:41;;;;;;;2.65;1.75;;;9.80;99.90;;;;;;2089609;28;20443;-70
2021/09/30 04:38:45;;;;;;;2.05;1.60;;;9.80;99.90;;;;;;2081161;28;20025;-71
2021/09/30 04:39:46;;;;;;;2.05;1.58;;;9.80;99.90;;;;;;2081119;28;20125;-70
2021/09/30 04:40:46;;;;;;;2.55;1.70;;;9.70;99.90;;;;;;2081046;28;20033;-70
2021/09/30 04:41:49;;;;;;;3.03;1.90;;;9.70;99.90;;;;;;2081202;28;20521;-72
2021/09/30 04:42:50;;;;;;;2.75;1.73;;;9.70;99.90;;;;;;2080779;28;20018;-70
2021/09/30 04:43:51;;;;;;;2.97;1.60;;;9.70;99.90;;;;;;2080312;28;20029;-72
2021/09/30 04:44:52;;;;;;;3.42;1.95;;;9.60;99.90;;;;;;2089198;28;20037;-72
2021/09/30 04:45:52;;;;;;;3.15;2.00;;;9.60;99.90;;;;;;2081675;28;20021;-72
2021/09/30 04:46:54;;;;;;;3.25;1.83;;;9.60;99.90;;;;;;2080832;28;20029;-72
2021/09/30 04:48:18;;;;;;;2.22;1.73;;;9.60;99.90;;;;;;2081030;28;20442;-71
2021/09/30 04:49:22;;;;;;;4.30;2.10;;;9.60;99.90;;;;;;2081112;28;20033;-72
2021/09/30 04:50:23;;;;;;;3.30;1.75;;;9.60;99.90;;;;;;2081004;28;20021;-72
2021/09/30 04:51:26;;;;;;;2.85;2.00;;;9.60;99.90;;;;;;2080886;28;20028;-72
2021/09/30 04:52:27;;;;;;;4.30;2.25;;;9.60;99.90;;;;;;2080990;28;20033;-72
2021/09/30 04:53:28;;;;;;;4.50;2.20;;;9.60;99.90;;;;;;2080120;28;20030;-72
2021/09/30 04:54:28;;;;;;;5.13;2.30;;;9.60;99.90;;;;;;2080972;28;20078;-71
2021/09/30 04:55:31;;;;;;;3.83;2.20;;;9.60;99.90;;;;;;2080836;28;20028;-72
2021/09/30 04:56:32;;;;;;;3.42;2.30;;;9.50;99.90;;;;;;2072794;28;20691;-71
2021/09/30 04:57:42;;;;;;;3.30;2.10;;;9.50;99.90;;;;;;2073821;28;20022;-72
2021/09/30 04:58:43;;;;;;;3.70;2.10;;;9.50;99.90;;;;;;2080945;28;20049;-72
2021/09/30 04:59:44;;;;;;;2.75;2.38;;;9.50;99.90;;;;;;2089132;28;20033;-72
2021/09/30 05:01:03;;;;;;;3.72;2.25;;;9.40;99.90;;;;;;2081309;28;20049;-72
2021/09/30 05:02:04;;;;;;;4.22;2.47;;;9.40;99.90;;;;;;2080856;28;20084;-70
2021/09/30 05:03:05;;;;;;;4.05;2.47;;;9.40;99.90;;;;;;2080919;28;20025;-73
2021/09/30 05:04:05;;;;;;;2.60;2.15;;;9.40;99.90;;;;;;2080138;28;20436;-72
2021/09/30 05:05:07;;;;;;;3.20;2.10;;;9.40;99.90;;;;;;2072539;28;20664;-73
2021/09/30 05:06:08;;;;;;;2.63;2.40;;;9.30;99.90;;;;;;2080619;28;20025;-72
2021/09/30 05:07:09;;;;;;;4.45;2.53;;;9.30;99.90;;;;;;2072493;28;20093;-73
2021/09/30 05:08:12;;;;;;;3.00;2.40;;;9.30;99.90;;;;;;2080959;28;20030;-72
2021/09/30 05:09:17;;;;;;;3.83;2.40;;;9.30;99.90;;;;;;2081012;28;20088;-72
2021/09/30 05:10:20;;;;;;;4.00;2.58;;;9.30;99.90;;;;;;2080862;28;20482;-72
2021/09/30 05:11:23;;;;;;;2.83;2.35;;;9.30;99.90;;;;;;2081460;28;20021;-70
2021/09/30 05:12:24;;;;;;;5.40;2.53;;;9.30;99.90;;;;;;2080774;28;20160;-71
2021/09/30 05:13:36;;;;;;;2.58;2.30;;;9.30;99.90;;;;;;2080267;28;20770;-72
2021/09/30 05:14:36;;;;;;;4.03;2.50;;;9.30;99.90;;;;;;2081387;28;20025;-70
2021/09/30 05:15:37;;;;;;;6.15;2.47;;;9.20;99.90;;;;;;2081297;28;20174;-70
2021/09/30 05:16:49;;;;;;;;;;;9.20;99.90;;;;;;2081685;28;20440;-71
2021/09/30 05:18:09;;;;;;;7.43;2.60;;;9.20;99.90;;;;;;2081919;28;19913;-72
2021/09/30 05:19:09;;;;;;;4.05;2.50;;;9.20;99.90;;;;;;2082203;28;20044;-73
2021/09/30 05:20:12;;;;;;;7.10;2.40;;;9.30;99.90;;;;;;2081366;28;20492;-73
2021/09/30 05:21:16;;;;;;;4.05;2.20;;;9.30;99.90;;;;;;2081851;28;20113;-73
2021/09/30 05:22:17;;;;;;;3.38;2.28;;;9.30;99.90;;;;;;2081560;28;20079;-73
2021/09/30 05:23:18;;;;;;;2.67;2.22;;;9.30;99.90;;;;;;2073637;28;20030;-74
2021/09/30 05:24:18;;;;;;;5.20;2.30;;;9.30;99.90;;;;;;2080476;28;20061;-71
2021/09/30 05:25:19;;;;;;;3.05;2.20;;;9.40;99.90;;;;;;2089155;28;20024;-71
2021/09/30 05:26:20;;;;;;;2.90;1.95;;;9.40;99.90;;;;;;2089292;28;20036;-71
2021/09/30 05:27:21;;;;;;;3.13;2.13;;;9.40;99.90;;;;;;2080708;28;20049;-71
2021/09/30 05:28:26;;;;;;;2.75;2.10;;;9.50;99.90;;;;;;2081190;28;20510;-72
2021/09/30 05:29:28;;;;;;;4.07;2.20;;;9.50;99.90;;;;;;2080987;28;20033;-72
2021/09/30 05:30:47;;;;;;;5.30;2.10;;;9.50;99.90;;;;;;2075222;28;20022;-72
2021/09/30 05:32:05;;;;;;;3.17;2.20;;;9.60;99.90;;;;;;2074415;28;20779;-71
2021/09/30 05:33:32;;;;;;;4.00;2.00;;;9.60;99.90;;;;;;2078880;28;20037;-72
2021/09/30 05:34:32;;;;;;;3.78;2.10;;;9.60;99.90;;;;;;2080722;28;20083;-71
2021/09/30 05:35:34;;;;;;;4.40;2.15;;;9.60;99.90;;;;;;2080370;28;20486;-71
2021/09/30 05:36:36;;;;;;;2.80;2.08;;;9.70;99.90;;;;;;2080661;28;20021;-72
2021/09/30 05:37:36;;;;;;;4.13;2.35;;;9.70;99.90;;;;;;2088877;28;20033;-71
2021/09/30 05:38:37;;;;;;;4.00;2.28;;;9.70;99.90;;;;;;2072539;28;20030;-71
2021/09/30 05:39:39;;;;;;;4.80;2.28;;;9.80;99.90;;;;;;2072651;28;20113;-71
2021/09/30 05:40:40;;;;;;;2.58;2.10;;;9.80;99.90;;;;;;2080548;28;20029;-71
2021/09/30 05:41:41;;;;;;;2.75;2.20;;;9.80;99.90;;;;;;2080469;28;20025;-72
2021/09/30 05:42:43;;;;;;;6.35;2.30;;;9.80;99.90;;;;;;2080670;28;20033;-71
2021/09/30 05:43:50;;;;;;;3.60;2.50;;;9.90;99.90;;;;;;2088071;28;20442;-71
2021/09/30 05:44:51;;;;;;;5.30;2.60;;;9.90;99.90;;;;;;2082183;28;20041;-70
2021/09/30 05:45:56;;;;;;;2.90;2.33;;;9.90;99.90;;;;;;2084166;28;20097;-71
2021/09/30 05:46:57;;;;;;;3.60;2.10;;;9.90;99.90;;;;;;2084358;28;20029;-70
2021/09/30 05:47:57;;;;;;;5.38;2.20;;;9.90;99.90;;;;;;2082619;28;20068;-71
2021/09/30 05:48:58;;;;;;;3.33;2.20;;;9.90;99.90;;;;;;2072331;28;20052;-71
2021/09/30 05:49:59;;;;;;;3.28;2.13;;;9.90;99.90;;;;;;2080741;28;20052;-70
2021/09/30 05:51:17;;;;;;;3.92;2.20;;;10.00;99.90;;;;;;2080953;28;20021;-70
2021/09/30 05:52:50;;;;;;;4.60;2.20;;;10.00;99.90;;;;;;2065093;28;20122;-71
2021/09/30 05:54:13;;;;;;;3.75;2.10;;;10.00;99.90;;;;;;2087155;28;20469;-70
2021/09/30 05:55:24;;;;;;;3.33;2.15;;;10.00;99.90;;;;;;2080642;28;20388;-70
2021/09/30 05:56:24;;;;;;;2.08;1.83;;;10.00;99.90;;;;;;2080651;28;20087;-71
2021/09/30 05:57:25;;;;;;;3.13;1.80;;;10.00;99.90;;;;;;2088872;28;20547;-71
2021/09/30 05:58:26;;;;;;;4.75;2.00;;;10.00;99.90;;;;;;2080333;28;20095;-71
2021/09/30 05:59:27;;;;;;;4.90;2.40;;;10.10;99.90;;;;;;2080531;28;20112;-71
2021/09/30 06:00:46;;;;;;;3.40;2.00;;;10.10;99.90;;;;;;2080494;28;20033;-71
2021/09/30 06:11:19;;;;;;;2.97;2.50;;;10.30;99.90;;;;;;2081129;28;20499;-72
2021/09/30 06:12:25;;;;;;;3.22;2.20;;;10.30;99.80;;;;;;2080285;28;20037;-71
2021/09/30 06:14:46;;;;;;;3.75;2.10;;;10.40;99.30;;;;;;2080293;28;20120;-72
2021/09/30 06:15:47;;;;;;;5.45;2.47;;;10.40;99.20;;;;;;2080417;28;20021;-71
2021/09/30 06:16:51;;;;;;;4.43;2.10;;;10.40;99.40;;;;;;2072177;28;20638;-71
2021/09/30 06:17:55;;;;;;;5.93;2.20;;;10.40;99.30;;;;;;2072578;28;20057;-71
2021/09/30 06:19:01;;;;;;;3.80;2.10;;;10.40;99.30;;;;;;2080515;28;20033;-71
2021/09/30 06:20:06;;;;;;;4.95;2.13;;;10.50;99.10;;;;;;2072114;28;20030;-71
2021/09/30 06:21:07;;;;;;;3.38;2.50;;;10.50;99.00;;;;;;2072617;28;20056;-71
2021/09/30 06:22:08;;;;;;;4.20;2.60;;;10.60;98.90;;;;;;2080299;28;20127;-71
2021/09/30 06:23:17;;;;;;;4.00;2.15;;;10.60;98.60;;;;;;2083280;28;20021;-73
2021/09/30 06:24:22;;;;;;;5.60;2.28;;;10.60;98.50;;;;;;2083510;28;20140;-73
2021/09/30 06:25:32;;;;;;;7.03;2.45;;;10.60;98.30;;;;;;2089948;28;20024;-74
2021/09/30 06:26:37;;;;;;;6.18;2.50;;;10.70;98.60;;;;;;2096632;28;20020;-74
2021/09/30 06:27:49;;;;;;;5.43;2.47;;;10.70;98.30;;;;;;2096813;28;20040;-73
2021/09/30 06:28:51;;;;;;;4.28;2.42;;;10.70;97.90;;;;;;2089040;28;20025;-72
2021/09/30 06:29:55;;;;;;;3.13;2.20;;;10.80;97.80;;;;;;2096830;28;20012;-71
2021/09/30 06:30:56;;;;;;;3.88;2.30;;;10.80;97.80;;;;;;2088103;28;20021;-72
2021/09/30 06:32:17;;;;;;;;;;;10.80;97.80;;;;;;2086107;28;20033;-72
2021/09/30 06:33:37;;;;;;;5.18;2.00;;;10.80;97.10;;;;;;2096318;28;20353;-72
2021/09/30 06:34:50;;;;;;;5.93;2.08;;;10.90;97.20;;;;;;2096590;28;20033;-73
2021/09/30 06:36:01;;;;;;;5.35;2.00;;;10.90;97.20;;;;;;2088730;28;20029;-72
2021/09/30 06:37:02;;;;;;;3.75;1.90;;;10.90;97.30;;;;;;2096725;28;20071;-73
2021/09/30 06:38:04;;;;;;;4.90;2.47;;;10.90;97.40;;;;;;2096901;28;20041;-74
2021/09/30 06:39:05;;;;;;;6.28;1.95;;;11.00;98.00;;;;;;2086267;28;20076;-72
2021/09/30 06:40:09;;;;;;;4.68;2.22;;;11.00;97.00;;;;;;2069825;28;20509;-73
2021/09/30 06:41:13;;;;;;;3.50;1.85;;;11.00;96.50;;;;;;2077195;28;20036;-73
2021/09/30 06:42:15;;;;;;;4.28;2.05;;;11.00;95.90;;;;;;2084398;28;20029;-73
2021/09/30 06:43:22;;;;;;;5.28;2.00;;;11.00;96.10;;;;;;2092331;28;20074;-74
2021/09/30 06:44:43;;;;;;;4.15;2.00;;;11.00;96.50;;;;;;2088806;28;20029;-73
2021/09/30 06:46:05;;;;;;;5.53;1.95;;;11.10;96.30;;;;;;2079354;28;20041;-73
2021/09/30 06:47:19;;;;;;;6.63;2.00;;;11.10;95.80;;;;;;2087738;28;20036;-73
2021/09/30 06:48:22;;;;;;;2.88;1.73;;;11.10;96.10;;;;;;2088433;28;20143;-74
2021/09/30 06:49:35;;;;;;;4.82;1.80;;;11.20;96.30;;;;;;2072802;28;20045;-73
2021/09/30 06:50:56;;;;;;;3.72;1.90;;;11.20;96.30;;;;;;2076004;28;20558;-73
2021/09/30 06:52:02;;;;;;;3.83;2.00;;;11.30;95.80;;;;;;2083319;28;20029;-72
2021/09/30 06:53:04;;;;;;;5.07;1.88;;;11.30;95.80;;;;;;2079877;28;20048;-72
2021/09/30 06:54:24;;;;;;;4.35;1.92;;;11.30;95.70;;;;;;2079857;28;20043;-73
2021/09/30 06:56:05;;;;;;;4.10;1.60;;;11.30;95.40;;;;;;2080390;28;20049;-73
2021/09/30 06:57:28;;;;;;;3.13;1.80;;;11.30;94.70;;;;;;2079973;28;20045;-73
2021/09/30 06:58:47;;;;;;;3.50;1.80;;;11.40;95.10;;;;;;2080292;28;20049;-73
2021/09/30 07:00:03;;;;;;;5.18;1.70;;;11.40;94.90;;;;;;2080582;28;20034;-74
2021/09/30 07:01:35;;;;;;;3.47;1.73;;;11.40;95.00;;;;;;2079274;28;20051;-72
2021/09/30 07:02:49;;;;;;;4.05;2.00;;;11.40;95.20;;;;;;2079537;28;20041;-72
2021/09/30 07:04:14;;;;;;;3.83;1.67;;;11.50;95.00;;;;;;2079495;28;20417;-73
2021/09/30 07:05:25;;;;;;;4.68;1.77;;;11.50;94.90;;;;;;2084564;28;20120;-73
2021/09/30 07:06:38;;;;;;;3.42;1.88;;;11.50;94.60;;;;;;2079944;28;20070;-73
2021/09/30 07:07:47;;;;;;;5.55;2.08;;;11.60;94.40;;;;;;2079653;28;20026;-73
2021/09/30 07:08:50;;;;;;;3.28;1.80;;;11.60;94.50;;;;;;2080096;28;20096;-73
2021/09/30 07:09:51;;;;;;;4.05;1.90;;;11.60;94.60;;;;;;2079655;28;20025;-73
2021/09/30 07:10:54;;;;;;;4.72;2.00;;;11.60;94.50;;;;;;2079931;28;20033;-72
2021/09/30 07:11:55;;;;;;;4.60;2.10;;;11.60;94.00;;;;;;2079894;28;20514;-73
2021/09/30 07:12:55;;;;;;;5.03;2.00;;;11.60;93.70;;;;;;2080045;28;20041;-73
2021/09/30 07:13:57;;;;;;;5.03;1.80;;;11.60;93.40;;;;;;2080206;28;20041;-74
2021/09/30 07:15:06;;;;;;;3.63;1.88;;;11.60;93.40;;;;;;2079764;28;20022;-73
2021/09/30 07:16:07;;;;;;;6.28;2.33;;;11.60;93.20;;;;;;2079855;28;20066;-73
2021/09/30 07:17:11;;;;;;;4.80;1.90;;;11.60;92.90;;;;;;2079647;28;20083;-73
2021/09/30 07:18:22;;;;;;;4.78;2.05;;;11.60;92.90;;;;;;2079808;28;20120;-73
2021/09/30 07:19:25;;;;;;;6.10;1.90;;;11.70;93.50;;;;;;2073095;28;20022;-73
2021/09/30 07:20:26;;;;;;;5.72;1.98;;;11.70;94.20;;;;;;2079846;28;20489;-72
2021/09/30 07:21:34;;;;;;;3.97;1.90;;;11.70;93.80;;;;;;2087951;28;20045;-73
2021/09/30 07:22:35;;;;;;;6.07;2.10;;;11.70;93.90;;;;;;2079197;28;20072;-72
2021/09/30 07:23:39;;;;;;;3.67;1.98;;;11.80;94.30;;;;;;2079466;28;20033;-72
2021/09/30 07:24:40;;;;;;;4.32;1.80;;;11.80;94.00;;;;;;2080255;28;20415;-73
2021/09/30 07:25:40;;;;;;;2.88;1.70;;;11.80;94.00;;;;;;2087613;28;20037;-73
2021/09/30 07:26:41;;;;;;;3.45;2.00;;;11.80;93.10;;;;;;2080106;28;20424;-73
2021/09/30 07:27:44;;;;;;;8.27;2.05;;;11.90;93.00;;;;;;2080061;28;20444;-71
2021/09/30 07:28:46;;;;;;;8.07;2.00;;;11.90;92.90;;;;;;2080827;28;20060;-73
2021/09/30 07:29:56;;;;;;;4.90;2.00;;;11.90;92.90;;;;;;2088435;28;20029;-72
2021/09/30 07:30:56;;;;;;;3.72;1.83;;;11.90;92.80;;;;;;2087503;28;20032;-71
2021/09/30 07:31:57;;;;;;;4.38;1.83;;;11.90;92.80;;;;;;2080482;28;20029;-72
2021/09/30 07:32:59;;;;;;;6.80;1.90;;;11.90;92.50;;;;;;2080075;28;20544;-73
2021/09/30 07:33:59;;;;;;;4.80;1.88;;;11.90;92.70;;;;;;2088274;28;20033;-73
2021/09/30 07:35:03;;;;;;;5.53;1.95;;;11.90;92.80;;;;;;2088963;28;20100;-71
2021/09/30 07:36:04;;;;;;;4.40;2.03;;;12.00;92.90;;;;;;2080397;28;20021;-72
2021/09/30 07:37:05;;;;;;;2.28;1.60;;;12.00;92.90;;;;;;2080223;28;20033;-72
2021/09/30 07:38:06;;;;;;;4.15;1.80;;;12.00;92.60;;;;;;2088440;28;20029;-72
2021/09/30 07:39:07;;;;;;;4.72;1.95;;;12.00;92.50;;;;;;2096464;28;20096;-72
2021/09/30 07:40:11;;;;;;;4.60;2.00;;;12.10;92.70;;;;;;2088487;28;20547;-74
2021/09/30 07:41:12;;;;;;;2.53;1.77;;;12.10;92.80;;;;;;2087930;28;20056;-73
2021/09/30 07:42:12;;;;;;;4.28;1.90;;;12.10;92.60;;;;;;2080356;28;20036;-71
2021/09/30 07:43:13;;;;;;;3.67;1.75;;;12.10;92.50;;;;;;2080138;28;20033;-72
2021/09/30 07:44:17;;;;;;;3.28;1.85;;;12.10;92.80;;;;;;2079622;28;20039;-73
2021/09/30 07:45:18;;;;;;;3.72;1.63;;;12.20;92.80;;;;;;2080065;28;20028;-71
2021/09/30 07:46:18;;;;;;;4.40;1.90;;;12.20;92.40;;;;;;2080186;28;20104;-72
2021/09/30 07:47:19;;;;;;;7.75;2.17;;;12.20;92.20;;;;;;2080546;28;20056;-72
2021/09/30 07:48:21;;;;;;;5.30;2.08;;;12.20;92.10;;;;;;2080437;28;20057;-72
2021/09/30 07:49:22;;;;;;;4.03;1.95;;;12.20;91.90;;;;;;2080800;28;20086;-71
2021/09/30 07:50:29;;;;;;;7.40;2.20;;;12.20;91.80;;;;;;2088381;28;20036;-71
2021/09/30 07:51:29;;;;;;;3.55;1.80;;;12.30;91.80;;;;;;2088292;28;20025;-71
2021/09/30 07:52:31;;;;;;;6.38;2.10;;;12.30;92.10;;;;;;2088580;28;20029;-74
2021/09/30 07:53:33;;;;;;;5.05;1.90;;;12.30;92.60;;;;;;2088202;28;20040;-71
2021/09/30 07:54:33;;;;;;;4.72;2.00;;;12.30;93.60;;;;;;2079884;28;20026;-72
2021/09/30 07:55:34;;;;;;;6.45;2.25;;;12.30;93.20;;;;;;2081734;28;20116;-72
2021/09/30 07:56:35;;;;;;;7.47;2.00;;;12.40;92.20;;;;;;2082308;28;20030;-72
2021/09/30 07:57:36;;;;;;;5.38;2.20;;;12.40;92.40;;;;;;2082015;28;20029;-72
2021/09/30 07:58:37;;;;;;;7.30;2.20;;;12.40;92.70;;;;;;2082414;28;20037;-71
2021/09/30 07:59:40;;;;;;;5.97;2.33;;;12.40;92.90;;;;;;2082468;28;20030;-71
2021/09/30 08:00:42;;;;;;;2.50;1.80;;;12.40;92.00;;;;;;2081885;28;20017;-71
2021/09/30 08:01:43;;;;;;;10.35;2.20;;;12.40;92.20;;;;;;2081678;28;20029;-71
2021/09/30 08:02:43;;;;;;;4.30;2.17;;;12.40;92.60;;;;;;2081379;28;20435;-72
2021/09/30 08:03:44;;;;;;;5.35;2.25;;;12.40;91.80;;;;;;2080892;28;20526;-72
2021/09/30 08:04:44;;;;;;;5.95;2.25;;;12.40;91.80;;;;;;2081233;28;20037;-71
2021/09/30 08:05:45;;;;;;;6.95;2.05;;;12.40;91.80;;;;;;2081485;28;20026;-72
2021/09/30 08:06:46;;;;;;;4.50;2.17;;;12.40;91.20;;;;;;2089561;28;20029;-71
2021/09/30 08:07:47;;;;;;;4.20;1.90;;;12.50;91.80;;;;;;2081955;28;20029;-72
2021/09/30 08:08:47;;;;;;;4.82;2.08;;;12.50;91.60;;;;;;2081276;28;20032;-71
2021/09/30 08:09:48;;;;;;;3.50;2.10;;;12.50;91.80;;;;;;2089538;28;20224;-72
2021/09/30 08:10:49;;;;;;;4.53;2.20;;;12.50;91.70;;;;;;2089295;28;20025;-72
2021/09/30 08:11:50;;;;;;;6.55;2.60;;;12.50;91.40;;;;;;2081668;28;20419;-71
2021/09/30 08:12:50;;;;;;;5.68;2.20;;;12.50;91.70;;;;;;2090345;28;20103;-72
2021/09/30 08:13:51;;;;;;;4.65;2.20;;;12.60;91.50;;;;;;2089343;28;20017;-72
2021/09/30 08:14:55;;;;;;;6.82;2.50;;;12.50;91.30;;;;;;2081851;28;20072;-72
2021/09/30 08:15:56;;;;;;;4.80;2.30;;;12.50;91.70;;;;;;2081685;28;20465;-73
2021/09/30 08:16:56;;;;;;;5.68;2.10;;;12.60;91.40;;;;;;2081669;28;20308;-71
2021/09/30 08:17:57;;;;;;;7.18;2.20;;;12.60;91.70;;;;;;2081523;28;20017;-72
2021/09/30 08:18:58;;;;;;;6.18;2.10;;;12.70;91.80;;;;;;2089430;28;20032;-72
2021/09/30 08:19:59;;;;;;;4.13;2.30;;;12.70;91.50;;;;;;2089717;28;20021;-72
2021/09/30 08:21:00;;;;;;;6.95;2.20;;;12.70;91.70;;;;;;2082071;28;20403;-72
2021/09/30 08:22:01;;;;;;;4.55;2.30;;;12.70;92.10;;;;;;2081791;28;20072;-72
2021/09/30 08:23:01;;;;;;;6.15;2.30;;;12.80;91.90;;;;;;2081215;28;20030;-71
2021/09/30 08:24:02;;;;;;;3.38;2.00;;;12.80;91.90;;;;;;2080789;28;20033;-71
2021/09/30 08:25:03;;;;;;;6.63;2.50;;;12.80;91.80;;;;;;2089215;28;20025;-71
2021/09/30 08:26:04;;;;;;;6.40;2.30;;;12.80;91.50;;;;;;2089468;28;20021;-71
2021/09/30 08:27:04;;;;;;;6.90;2.17;;;12.90;91.80;;;;;;2081836;28;20025;-72
2021/09/30 08:28:06;;;;;;;7.65;2.65;;;12.90;92.00;;;;;;2097760;28;20021;-71
2021/09/30 08:29:09;;;;;;;6.68;2.25;;;12.90;90.90;;;;;;2088885;28;20087;-72